createdAt,value
2018-07-13T00:00:11.575Z,22.20
2018-07-13T00:02:41.066Z,22.20
2018-07-13T00:05:10.889Z,22.20
2018-07-13T00:07:40.346Z,22.20
2018-07-13T00:10:09.809Z,22.20
2018-07-13T00:12:39.444Z,22.10
2018-07-13T00:15:10.779Z,22.10
2018-07-13T00:17:40.293Z,22.10
2018-07-13T00:20:09.769Z,22.10
2018-07-13T00:22:39.378Z,22.00
2018-07-13T00:25:08.829Z,22.00
2018-07-13T00:27:39.063Z,22.10
2018-07-13T00:30:15.065Z,22.00
2018-07-13T00:32:44.553Z,22.00
2018-07-13T00:35:13.988Z,22.00
2018-07-13T00:37:43.619Z,22.00
2018-07-13T00:40:13.178Z,22.00
2018-07-13T00:45:11.624Z,21.90
2018-07-13T00:47:41.122Z,21.90
2018-07-13T00:50:10.633Z,21.90
2018-07-13T00:52:40.089Z,21.90
2018-07-13T00:55:10.341Z,21.90
2018-07-13T00:57:39.965Z,21.90
2018-07-13T01:00:09.831Z,21.80
2018-07-13T01:05:08.260Z,21.80
2018-07-13T01:07:37.766Z,21.80
2018-07-13T01:10:07.841Z,21.80
2018-07-13T01:12:37.327Z,21.70
2018-07-13T01:15:06.941Z,21.70
2018-07-13T01:17:36.929Z,21.70
2018-07-13T01:20:06.560Z,21.70
2018-07-13T01:22:36.007Z,21.70
2018-07-13T01:25:07.644Z,21.70
2018-07-13T01:27:37.106Z,21.70
2018-07-13T01:30:07.295Z,21.70
2018-07-13T01:32:36.846Z,21.60
2018-07-13T01:35:06.465Z,21.60
2018-07-13T01:37:35.973Z,21.60
2018-07-13T01:40:05.433Z,21.60
2018-07-13T01:42:34.870Z,21.60
2018-07-13T01:45:04.418Z,21.60
2018-07-13T01:47:33.956Z,21.60
2018-07-13T01:50:03.409Z,21.60
2018-07-13T01:52:32.884Z,21.50
2018-07-13T01:55:02.373Z,21.50
2018-07-13T01:57:31.985Z,21.50
2018-07-13T02:00:01.415Z,21.50
2018-07-13T02:02:30.874Z,21.50
2018-07-13T02:05:00.373Z,21.40
2018-07-13T02:08:00.770Z,21.50
2018-07-13T02:10:30.457Z,21.40
2018-07-13T02:13:00.833Z,21.40
2018-07-13T02:15:30.288Z,21.40
2018-07-13T02:17:59.692Z,21.40
2018-07-13T02:20:29.193Z,21.40
2018-07-13T02:22:58.873Z,21.40
2018-07-13T02:25:28.498Z,21.30
2018-07-13T02:27:57.907Z,21.30
2018-07-13T02:30:27.356Z,21.30
2018-07-13T02:32:56.808Z,21.30
2018-07-13T02:35:26.229Z,21.20
2018-07-13T02:37:55.712Z,21.30
2018-07-13T02:40:25.322Z,21.20
2018-07-13T02:42:54.929Z,21.20
2018-07-13T02:45:24.344Z,21.20
2018-07-13T02:47:53.832Z,21.10
2018-07-13T02:50:23.252Z,21.10
2018-07-13T02:52:52.856Z,21.10
2018-07-13T02:55:22.480Z,21.10
2018-07-13T02:57:51.941Z,21.10
2018-07-13T03:00:21.381Z,21.10
2018-07-13T03:02:50.913Z,21.10
2018-07-13T03:05:20.558Z,21.00
2018-07-13T03:07:50.009Z,21.00
2018-07-13T03:10:19.760Z,21.00
2018-07-13T03:12:49.178Z,21.00
2018-07-13T03:15:18.805Z,21.00
2018-07-13T03:17:48.252Z,20.90
2018-07-13T03:20:17.778Z,20.90
2018-07-13T03:22:47.494Z,20.90
2018-07-13T03:25:16.981Z,20.90
2018-07-13T03:27:46.610Z,20.90
2018-07-13T03:30:16.365Z,20.80
2018-07-13T03:32:45.970Z,20.80
2018-07-13T03:35:15.392Z,20.90
2018-07-13T03:37:44.840Z,20.80
2018-07-13T03:40:14.286Z,20.80
2018-07-13T03:42:43.835Z,20.70
2018-07-13T03:45:13.294Z,20.70
2018-07-13T03:47:42.729Z,20.70
2018-07-13T03:50:12.161Z,20.70
2018-07-13T03:52:41.671Z,20.70
2018-07-13T03:55:11.092Z,20.70
2018-07-13T03:57:40.545Z,20.60
2018-07-13T04:00:09.997Z,20.60
2018-07-13T04:02:39.500Z,20.60
2018-07-13T04:05:09.393Z,20.60
2018-07-13T04:07:38.946Z,20.60
2018-07-13T04:10:08.531Z,20.60
2018-07-13T04:12:37.961Z,20.60
2018-07-13T04:15:07.661Z,20.60
2018-07-13T04:20:06.374Z,20.60
2018-07-13T04:22:35.966Z,20.50
2018-07-13T04:25:06.439Z,20.50
2018-07-13T04:27:37.170Z,20.50
2018-07-13T04:30:07.481Z,20.50
2018-07-13T04:32:37.104Z,20.50
2018-07-13T04:35:07.063Z,20.50
2018-07-13T04:37:36.501Z,20.50
2018-07-13T04:40:06.169Z,20.40
2018-07-13T04:42:35.764Z,20.40
2018-07-13T04:45:05.359Z,20.40
2018-07-13T04:47:34.876Z,20.40
2018-07-13T04:50:04.841Z,20.40
2018-07-13T04:52:34.383Z,20.40
2018-07-13T04:55:05.111Z,20.40
2018-07-13T04:57:34.636Z,20.40
2018-07-13T05:00:04.363Z,20.40
2018-07-13T05:02:34.805Z,20.30
2018-07-13T05:05:04.345Z,20.30
2018-07-13T05:07:33.898Z,20.30
2018-07-13T05:10:03.828Z,20.30
2018-07-13T05:15:03.262Z,20.30
2018-07-13T05:17:32.768Z,20.30
2018-07-13T05:20:02.270Z,20.30
2018-07-13T05:22:31.814Z,20.30
2018-07-13T05:25:01.371Z,20.30
2018-07-13T05:27:31.339Z,20.30
2018-07-13T05:30:01.849Z,20.30
2018-07-13T05:32:31.585Z,20.30
2018-07-13T05:35:01.279Z,20.30
2018-07-13T05:37:31.689Z,20.30
2018-07-13T05:40:02.978Z,20.30
2018-07-13T05:42:32.597Z,20.30
2018-07-13T05:45:02.193Z,20.30
2018-07-13T05:47:31.983Z,20.30
2018-07-13T05:50:01.601Z,20.30
2018-07-13T05:52:33.803Z,20.30
2018-07-13T05:55:04.388Z,20.30
2018-07-13T05:57:34.703Z,20.30
2018-07-13T06:00:05.959Z,20.30
2018-07-13T06:02:36.404Z,20.30
2018-07-13T06:05:05.929Z,20.30
2018-07-13T06:07:35.516Z,20.20
2018-07-13T06:10:06.289Z,20.20
2018-07-13T06:12:36.877Z,20.30
2018-07-13T06:15:06.797Z,20.30
2018-07-13T06:17:36.411Z,20.30
2018-07-13T06:20:07.656Z,20.30
2018-07-13T06:22:37.399Z,20.30
2018-07-13T06:25:07.495Z,20.20
2018-07-13T06:27:36.957Z,20.30
2018-07-13T06:30:06.895Z,20.30
2018-07-13T06:32:36.648Z,20.30
2018-07-13T06:35:06.530Z,20.30
2018-07-13T06:37:36.048Z,20.30
2018-07-13T06:40:06.127Z,20.30
2018-07-13T06:42:35.654Z,20.30
2018-07-13T06:45:05.782Z,20.30
2018-07-13T06:47:35.427Z,20.30
2018-07-13T06:50:06.570Z,20.30
2018-07-13T06:52:36.191Z,20.30
2018-07-13T06:55:05.891Z,20.30
2018-07-13T06:57:46.461Z,20.30
2018-07-13T07:00:57.651Z,20.30
2018-07-13T07:03:28.292Z,20.30
2018-07-13T07:06:00.946Z,20.30
2018-07-13T07:08:31.225Z,20.30
2018-07-13T07:11:00.974Z,20.30
2018-07-13T07:13:33.965Z,20.30
2018-07-13T07:16:03.710Z,20.40
2018-07-13T07:18:34.233Z,20.40
2018-07-13T07:21:04.100Z,20.40
2018-07-13T07:23:34.632Z,20.50
2018-07-13T07:26:07.375Z,20.50
2018-07-13T07:28:36.935Z,20.50
2018-07-13T07:31:07.456Z,20.50
2018-07-13T07:33:36.971Z,20.50
2018-07-13T07:36:06.636Z,20.50
2018-07-13T07:38:36.176Z,20.50
2018-07-13T07:41:06.026Z,20.50
2018-07-13T07:43:35.788Z,20.60
2018-07-13T07:46:05.480Z,20.60
2018-07-13T07:48:35.339Z,20.60
2018-07-13T07:51:05.324Z,20.70
2018-07-13T07:56:03.972Z,20.70
2018-07-13T07:58:33.461Z,20.70
2018-07-13T08:01:03.159Z,20.80
2018-07-13T08:03:32.647Z,20.80
2018-07-13T08:08:31.233Z,20.90
2018-07-13T08:13:29.901Z,20.90
2018-07-13T08:15:59.392Z,20.90
2018-07-13T08:18:29.096Z,21.00
2018-07-13T08:20:58.789Z,21.00
2018-07-13T08:23:28.529Z,21.10
2018-07-13T08:25:58.106Z,21.10
2018-07-13T08:28:28.455Z,21.10
2018-07-13T08:30:59.516Z,21.10
2018-07-13T08:33:29.280Z,21.20
2018-07-13T08:35:58.985Z,21.20
2018-07-13T08:38:28.742Z,21.30
2018-07-13T08:40:58.587Z,21.30
2018-07-13T08:43:28.091Z,21.30
2018-07-13T08:45:58.258Z,21.30
2018-07-13T08:48:29.259Z,21.40
2018-07-13T08:50:59.013Z,21.40
2018-07-13T08:53:29.559Z,21.40
2018-07-13T08:55:59.463Z,21.50
2018-07-13T08:58:29.959Z,21.50
2018-07-13T09:01:00.093Z,21.60
2018-07-13T09:03:29.794Z,21.60
2018-07-13T09:06:00.316Z,21.60
2018-07-13T09:08:29.825Z,21.70
2018-07-13T09:10:59.995Z,21.70
2018-07-13T09:13:30.304Z,21.70
2018-07-13T09:15:59.969Z,21.80
2018-07-13T09:18:29.568Z,21.80
2018-07-13T09:20:59.543Z,21.80
2018-07-13T09:23:29.063Z,21.80
2018-07-13T09:25:58.795Z,21.90
2018-07-13T09:30:57.481Z,21.90
2018-07-13T09:33:27.596Z,22.00
2018-07-13T09:35:57.194Z,22.00
2018-07-13T09:38:27.003Z,22.00
2018-07-13T09:40:56.803Z,22.10
2018-07-13T09:43:27.356Z,22.10
2018-07-13T09:45:57.453Z,22.10
2018-07-13T09:48:27.097Z,22.20
2018-07-13T09:50:56.659Z,22.20
2018-07-13T09:53:26.304Z,22.20
2018-07-13T09:55:55.976Z,22.30
2018-07-13T09:58:33.251Z,22.30
2018-07-13T10:01:19.161Z,22.30
2018-07-13T10:03:49.138Z,22.40
2018-07-13T10:06:19.190Z,22.40
2018-07-13T10:08:49.669Z,22.40
2018-07-13T10:14:03.464Z,22.50
2018-07-13T10:16:33.048Z,22.50
2018-07-13T10:19:03.623Z,22.60
2018-07-13T10:21:34.340Z,22.60
2018-07-13T10:24:03.953Z,22.60
2018-07-13T10:26:37.403Z,22.70
2018-07-13T10:29:09.937Z,22.70
2018-07-13T10:31:52.466Z,22.70
2018-07-13T10:34:36.392Z,22.70
2018-07-13T10:37:07.224Z,22.80
2018-07-13T10:39:37.078Z,22.80
2018-07-13T10:42:06.945Z,22.90
2018-07-13T10:44:36.616Z,22.90
2018-07-13T10:47:06.626Z,22.90
2018-07-13T10:49:36.291Z,23.00
2018-07-13T10:52:05.964Z,23.00
2018-07-13T10:54:35.460Z,23.00
2018-07-13T10:57:05.213Z,23.10
2018-07-13T10:59:35.458Z,23.10
2018-07-13T11:02:05.027Z,23.10
2018-07-13T11:04:35.770Z,23.20
2018-07-13T11:07:05.286Z,23.20
2018-07-13T11:09:35.013Z,23.20
2018-07-13T11:12:05.053Z,23.30
2018-07-13T11:14:34.644Z,23.30
2018-07-13T11:17:04.409Z,23.30
2018-07-13T11:19:34.393Z,23.40
2018-07-13T11:22:04.180Z,23.40
2018-07-13T11:24:33.954Z,23.50
2018-07-13T11:27:03.429Z,23.50
2018-07-13T11:29:33.369Z,23.50
2018-07-13T11:32:02.947Z,23.50
2018-07-13T11:34:32.705Z,23.60
2018-07-13T11:39:32.100Z,23.60
2018-07-13T11:42:01.625Z,23.60
2018-07-13T11:44:31.328Z,23.70
2018-07-13T11:47:00.881Z,23.70
2018-07-13T11:49:31.292Z,23.70
2018-07-13T11:52:01.035Z,23.80
2018-07-13T11:54:30.582Z,23.80
2018-07-13T11:57:00.251Z,23.80
2018-07-13T11:59:29.857Z,23.90
2018-07-13T12:01:59.652Z,23.90
2018-07-13T12:04:29.221Z,23.90
2018-07-13T12:06:58.990Z,23.90
2018-07-13T12:12:27.618Z,23.90
2018-07-13T12:14:57.525Z,24.00
2018-07-13T12:17:27.234Z,24.00
2018-07-13T12:19:56.978Z,24.10
2018-07-13T12:22:26.616Z,24.10
2018-07-13T12:24:56.167Z,24.10
2018-07-13T12:27:26.093Z,24.10
2018-07-13T12:29:56.089Z,24.10
2018-07-13T12:32:26.031Z,24.20
2018-07-13T12:34:55.624Z,24.20
2018-07-13T12:52:18.667Z,25.10
2018-07-13T12:54:48.345Z,25.00
2018-07-13T12:57:18.553Z,25.10
2018-07-13T12:59:48.058Z,25.20
2018-07-13T13:02:17.799Z,25.30
2018-07-13T13:04:47.494Z,25.40
2018-07-13T13:10:20.486Z,25.50
2018-07-13T13:12:50.145Z,25.50
2018-07-13T13:15:19.978Z,25.50
2018-07-13T13:17:49.524Z,25.60
2018-07-13T13:20:19.641Z,25.60
2018-07-13T13:22:49.427Z,25.60
2018-07-13T13:25:19.048Z,25.60
2018-07-13T13:27:48.983Z,25.70
2018-07-13T13:30:18.776Z,25.70
2018-07-13T13:32:48.808Z,25.70
2018-07-13T13:35:18.727Z,25.70
2018-07-13T13:37:48.457Z,25.70
2018-07-13T13:40:18.121Z,25.80
2018-07-13T13:42:48.069Z,25.80
2018-07-13T13:45:17.890Z,25.80
2018-07-13T13:47:47.689Z,25.80
2018-07-13T13:50:17.589Z,25.80
2018-07-13T13:52:47.227Z,25.80
2018-07-13T13:55:17.277Z,25.80
2018-07-13T13:57:47.053Z,25.80
2018-07-13T14:00:17.187Z,25.80
2018-07-13T14:02:47.026Z,25.80
2018-07-13T14:05:16.821Z,25.80
2018-07-13T14:07:46.376Z,25.80
2018-07-13T14:10:15.959Z,25.80
2018-07-13T14:12:45.507Z,25.80
2018-07-13T14:15:15.841Z,25.80
2018-07-13T14:17:46.671Z,25.80
2018-07-13T14:20:16.269Z,25.80
2018-07-13T14:22:46.079Z,25.80
2018-07-13T14:25:15.849Z,25.80
2018-07-13T14:27:45.687Z,25.80
2018-07-13T14:30:15.412Z,25.80
2018-07-13T14:32:45.497Z,25.70
2018-07-13T14:37:47.756Z,25.80
2018-07-13T14:40:17.535Z,25.70
2018-07-13T14:42:47.471Z,25.70
2018-07-13T14:45:17.832Z,25.70
2018-07-13T14:47:47.544Z,25.70
2018-07-13T14:50:17.250Z,25.70
2018-07-13T14:52:46.910Z,25.70
2018-07-13T14:55:16.823Z,25.70
2018-07-13T14:57:46.396Z,25.40
2018-07-13T15:00:19.133Z,25.10
2018-07-13T15:05:18.902Z,24.50
2018-07-13T15:07:48.488Z,24.40
2018-07-13T15:10:18.404Z,24.30
2018-07-13T15:12:48.522Z,24.40
2018-07-13T15:15:18.643Z,24.20
2018-07-13T15:17:48.210Z,24.20
2018-07-13T15:20:18.547Z,24.20
2018-07-13T15:22:48.037Z,24.10
2018-07-13T15:25:17.676Z,24.10
2018-07-13T15:27:47.177Z,23.90
2018-07-13T15:30:17.649Z,24.00
2018-07-13T15:32:47.362Z,24.00
2018-07-13T15:35:17.668Z,23.80
2018-07-13T15:37:47.280Z,23.70
2018-07-13T15:40:16.990Z,23.60
2018-07-13T15:42:46.628Z,23.60
2018-07-13T15:45:16.310Z,23.60
2018-07-13T15:47:46.050Z,23.50
2018-07-13T15:50:15.828Z,23.60
2018-07-13T15:52:45.336Z,23.60
2018-07-13T15:55:15.152Z,23.50
2018-07-13T15:57:44.711Z,23.40
2018-07-13T16:00:14.786Z,23.20
2018-07-13T16:02:44.424Z,23.20
2018-07-13T16:05:14.858Z,23.20
2018-07-13T16:07:44.496Z,23.20
2018-07-13T16:10:15.221Z,22.90
2018-07-13T16:15:14.809Z,22.80
2018-07-13T16:17:44.539Z,23.00
2018-07-13T16:20:14.451Z,22.80
2018-07-13T16:22:44.340Z,22.80
2018-07-13T16:25:13.908Z,22.70
2018-07-13T16:27:43.640Z,22.70
2018-07-13T16:30:13.480Z,22.70
2018-07-13T16:32:43.285Z,22.60
2018-07-13T16:35:12.972Z,22.40
2018-07-13T16:37:42.685Z,22.50
2018-07-13T16:40:12.410Z,22.70
2018-07-13T16:42:42.170Z,22.70
2018-07-13T16:45:12.120Z,22.40
2018-07-13T16:47:41.929Z,22.40
2018-07-13T16:50:11.846Z,22.40
2018-07-13T16:52:41.769Z,22.30
2018-07-13T16:55:12.502Z,22.30
2018-07-13T16:57:42.202Z,22.30
2018-07-13T17:00:11.983Z,22.40
2018-07-13T17:02:42.219Z,22.80
2018-07-13T17:05:12.623Z,23.00
2018-07-13T17:07:42.121Z,23.20
2018-07-13T17:10:11.770Z,23.30
2018-07-13T17:12:41.477Z,23.30
2018-07-13T17:15:11.280Z,23.40
2018-07-13T17:17:40.998Z,23.40
2018-07-13T17:20:10.559Z,23.40
2018-07-13T17:22:40.425Z,23.50
2018-07-13T17:25:09.959Z,23.50
2018-07-13T17:27:40.926Z,23.50
2018-07-13T17:30:11.297Z,23.50
2018-07-13T17:32:42.303Z,23.50
2018-07-13T17:35:12.205Z,23.50
2018-07-13T17:37:41.841Z,23.50
2018-07-13T17:40:11.799Z,23.50
2018-07-13T17:42:41.742Z,23.40
2018-07-13T17:45:11.281Z,23.40
2018-07-13T17:47:41.258Z,23.40
2018-07-13T17:50:12.049Z,23.40
2018-07-13T17:52:42.023Z,23.40
2018-07-13T17:55:26.771Z,23.40
2018-07-13T17:57:56.403Z,23.40
2018-07-13T18:00:26.884Z,23.40
2018-07-13T18:02:56.744Z,23.40
2018-07-13T18:07:55.569Z,23.30
2018-07-13T18:10:25.358Z,23.30
2018-07-13T18:12:57.311Z,23.30
2018-07-13T18:15:28.078Z,23.30
2018-07-13T18:17:57.917Z,23.30
2018-07-13T18:20:27.575Z,23.30
2018-07-13T18:25:27.106Z,23.20
2018-07-13T18:27:57.085Z,23.20
2018-07-13T18:30:27.031Z,23.20
2018-07-13T18:32:56.603Z,23.20
2018-07-13T18:35:27.371Z,23.20
2018-07-13T18:37:58.118Z,23.10
2018-07-13T18:40:28.677Z,23.10
2018-07-13T18:42:58.591Z,23.10
2018-07-13T18:45:29.204Z,23.10
2018-07-13T18:47:59.004Z,23.10
2018-07-13T18:50:31.858Z,23.00
2018-07-13T18:53:02.711Z,23.00
2018-07-13T18:55:33.382Z,23.00
2018-07-13T18:58:03.095Z,23.00
2018-07-13T19:00:32.852Z,23.00
2018-07-13T19:03:03.046Z,23.00
2018-07-13T19:05:33.370Z,22.90
2018-07-13T19:08:04.159Z,22.90
2018-07-13T19:10:34.416Z,22.90
2018-07-13T19:13:07.291Z,22.90
2018-07-13T19:15:36.967Z,22.90
2018-07-13T19:18:06.738Z,22.90
2018-07-13T19:20:38.734Z,22.80
2018-07-13T19:23:09.027Z,22.80
2018-07-13T19:25:38.720Z,22.80
2018-07-13T19:28:08.251Z,22.70
2018-07-13T19:30:39.038Z,22.70
2018-07-13T19:33:09.198Z,22.70
2018-07-13T19:35:38.974Z,22.70
2018-07-13T19:38:08.703Z,22.70
2018-07-13T19:40:38.931Z,22.60
2018-07-13T19:43:08.729Z,22.60
2018-07-13T19:45:45.246Z,22.60
2018-07-13T19:48:15.944Z,22.60
2018-07-13T19:50:45.630Z,22.60
2018-07-13T19:53:15.358Z,22.60
2018-07-13T19:55:45.034Z,22.60
2018-07-13T19:58:15.164Z,22.60
2018-07-13T20:00:45.095Z,22.50
2018-07-13T20:03:16.180Z,22.50
2018-07-13T20:05:46.236Z,22.50
2018-07-13T20:08:16.012Z,22.50
2018-07-13T20:10:45.550Z,22.50
2018-07-13T20:13:15.250Z,22.50
2018-07-13T20:15:52.555Z,22.40
2018-07-13T20:18:23.917Z,22.40
2018-07-13T20:20:58.395Z,22.40
2018-07-13T20:23:28.981Z,22.40
2018-07-13T20:25:58.990Z,22.40
2018-07-13T20:28:28.707Z,22.30
2018-07-13T20:30:58.820Z,22.30
2018-07-13T20:33:29.359Z,22.30
2018-07-13T20:35:59.112Z,22.30
2018-07-13T20:38:28.742Z,22.30
2018-07-13T20:40:58.510Z,22.20
2018-07-13T20:43:28.378Z,22.20
2018-07-13T20:46:00.222Z,22.20
2018-07-13T20:48:30.124Z,22.20
2018-07-13T20:50:59.609Z,22.20
2018-07-13T20:53:29.175Z,22.20
2018-07-13T20:55:58.898Z,22.20
2018-07-13T20:58:28.405Z,22.10
2018-07-13T21:00:58.098Z,22.10
2018-07-13T21:03:27.885Z,22.10
2018-07-13T21:05:57.838Z,22.10
2018-07-13T21:08:27.911Z,22.10
2018-07-13T21:10:57.865Z,22.10
2018-07-13T21:13:27.760Z,22.00
2018-07-13T21:15:58.780Z,22.00
2018-07-13T21:18:31.099Z,22.00
2018-07-13T21:21:01.888Z,22.00
2018-07-13T21:23:31.714Z,22.00
2018-07-13T21:26:01.432Z,21.90
2018-07-13T21:28:31.565Z,21.90
2018-07-13T21:31:01.304Z,21.90
2018-07-13T21:33:32.455Z,21.90
2018-07-13T21:36:10.980Z,21.90
2018-07-13T21:38:43.062Z,21.90
2018-07-13T21:41:16.439Z,21.90
2018-07-13T21:43:49.078Z,21.80
2018-07-13T21:46:20.746Z,21.80
2018-07-13T21:48:50.641Z,21.80
2018-07-13T21:51:20.455Z,21.80
2018-07-13T21:53:52.230Z,21.70
2018-07-13T21:56:22.154Z,21.70
2018-07-13T21:58:53.139Z,21.70
2018-07-13T22:01:23.292Z,21.70
2018-07-13T22:03:54.486Z,21.70
2018-07-13T22:06:24.028Z,21.70
2018-07-13T22:08:53.941Z,21.60
2018-07-13T22:11:25.172Z,21.60
2018-07-13T22:13:54.923Z,21.60
2018-07-13T22:18:55.759Z,21.50
2018-07-13T22:21:25.680Z,21.50
2018-07-13T22:23:55.453Z,21.50
2018-07-13T22:26:25.294Z,21.50
2018-07-13T22:28:55.313Z,21.50
2018-07-13T22:31:25.345Z,21.40
2018-07-13T22:33:59.037Z,21.40
2018-07-13T22:36:29.379Z,21.40
2018-07-13T22:38:59.372Z,21.40
2018-07-13T22:41:29.076Z,21.40
2018-07-13T22:43:59.479Z,21.30
2018-07-13T22:46:29.430Z,21.30
2018-07-13T22:48:59.192Z,21.30
2018-07-13T22:51:29.656Z,21.30
2018-07-13T22:53:59.475Z,21.30
2018-07-13T22:56:29.468Z,21.30
2018-07-13T22:58:59.688Z,21.20
2018-07-13T23:01:29.546Z,21.20
2018-07-13T23:03:59.803Z,21.20
2018-07-13T23:06:29.591Z,21.20
2018-07-13T23:08:59.874Z,21.20
2018-07-13T23:11:29.616Z,21.20
2018-07-13T23:13:59.191Z,21.20
2018-07-13T23:16:28.799Z,21.10
2018-07-13T23:18:58.791Z,21.10
2018-07-13T23:21:28.504Z,21.10
2018-07-13T23:23:58.333Z,21.10
2018-07-13T23:28:57.281Z,21.10
2018-07-13T23:31:27.087Z,21.10
2018-07-13T23:33:56.760Z,21.10
2018-07-13T23:36:26.335Z,21.00
2018-07-13T23:38:56.392Z,21.00
2018-07-13T23:41:26.167Z,21.00
2018-07-13T23:43:55.760Z,21.00
2018-07-13T23:48:54.395Z,21.00
2018-07-13T23:51:23.970Z,20.90
2018-07-13T23:53:53.585Z,20.90
2018-07-13T23:56:24.085Z,20.90
2018-07-13T23:58:54.268Z,20.90
